Time;durP1;ratioP1;P1;durP2;ratioP2;P2;SDS_P1;SDS_P2;PMS_P1;PMS_P2;Temp;Humidity;BMP_temperature;BMP_pressure;BME280_temperature;BME280_humidity;BME280_pressure;Samples;Min_cycle;Max_cycle;Signal;HPM_P1;HPM_P2
2022/07/12 00:02:05;;;;;;;2.17;1.48;;;;;;;;;;5035007;28;20021;-77
2022/07/12 00:04:30;;;;;;;4.80;1.48;;;;;;;;;;5035764;28;20022;-79
2022/07/12 00:06:55;;;;;;;2.58;1.40;;;;;;;;;;5036587;28;20033;-80
2022/07/12 00:09:21;;;;;;;2.70;1.60;;;;;;;;;;5036081;28;20029;-79
2022/07/12 00:11:46;;;;;;;2.72;1.33;;;;;;;;;;5037542;28;20288;-77
2022/07/12 00:14:12;;;;;;;4.10;1.60;;;;;;;;;;5036021;28;20479;-78
2022/07/12 00:16:37;;;;;;;2.33;1.48;;;;;;;;;;5037136;28;20102;-77
2022/07/12 00:19:03;;;;;;;2.17;1.45;;;;;;;;;;5036644;28;20025;-77
2022/07/12 00:21:28;;;;;;;15.50;1.45;;;;;;;;;;5036808;28;20029;-79
2022/07/12 00:23:53;;;;;;;2.20;1.52;;;;;;;;;;5035126;28;20024;-79
2022/07/12 00:26:19;;;;;;;4.07;1.48;;;;;;;;;;5035427;28;20025;-77
2022/07/12 00:28:44;;;;;;;4.95;1.80;;;;;;;;;;5035887;28;20541;-78
2022/07/12 00:31:10;;;;;;;2.22;1.35;;;;;;;;;;5035526;28;20049;-77
2022/07/12 00:33:35;;;;;;;2.90;1.60;;;;;;;;;;5035020;28;20025;-78
2022/07/12 00:36:00;;;;;;;3.30;1.48;;;;;;;;;;5035491;28;20262;-78
2022/07/12 00:38:25;;;;;;;4.18;1.38;;;;;;;;;;5037962;28;20052;-71
2022/07/12 00:40:51;;;;;;;4.10;1.60;;;;;;;;;;5037248;28;20052;-70
2022/07/12 00:43:16;;;;;;;4.03;1.30;;;;;;;;;;5036745;28;20250;-70
2022/07/12 00:45:42;;;;;;;4.53;1.40;;;;;;;;;;5002612;28;20147;-70
2022/07/12 00:48:07;;;;;;;2.67;1.20;;;;;;;;;;5032485;28;20294;-70
2022/07/12 00:50:33;;;;;;;1.60;1.30;;;;;;;;;;5033557;28;20068;-69
2022/07/12 00:52:58;;;;;;;1.83;1.10;;;;;;;;;;5039010;28;20542;-69
2022/07/12 00:55:24;;;;;;;4.75;1.50;;;;;;;;;;5039585;28;20068;-69
2022/07/12 00:57:50;;;;;;;2.17;1.30;;;;;;;;;;5020398;28;20060;-69
2022/07/12 01:00:30;;;;;;;2.50;1.30;;;;;;;;;;5036743;28;20040;-69
2022/07/12 01:02:56;;;;;;;3.00;1.50;;;;;;;;;;5018682;28;20021;-69
2022/07/12 01:05:22;;;;;;;2.00;1.30;;;;;;;;;;5036473;28;20045;-69
2022/07/12 01:07:48;;;;;;;2.28;1.50;;;;;;;;;;5036267;28;20026;-69
2022/07/12 01:10:14;;;;;;;5.70;1.40;;;;;;;;;;5036624;28;20025;-70
2022/07/12 01:12:39;;;;;;;1.55;1.30;;;;;;;;;;5036327;28;20028;-69
2022/07/12 01:15:06;;;;;;;2.05;1.30;;;;;;;;;;5036273;28;20394;-69
2022/07/12 01:17:31;;;;;;;3.03;1.30;;;;;;;;;;5036582;28;20104;-70
2022/07/12 01:19:57;;;;;;;2.05;1.17;;;;;;;;;;5036043;28;20556;-69
2022/07/12 01:22:40;;;;;;;2.13;1.30;;;;;;;;;;5036040;28;20478;-70
2022/07/12 01:25:06;;;;;;;2.38;1.48;;;;;;;;;;5028925;28;20124;-69
2022/07/12 01:27:31;;;;;;;3.97;1.27;;;;;;;;;;5018217;28;20036;-69
2022/07/12 01:29:57;;;;;;;2.75;1.30;;;;;;;;;;5035915;28;20431;-69
2022/07/12 01:32:25;;;;;;;3.10;1.30;;;;;;;;;;5035831;28;20025;-70
2022/07/12 01:34:54;;;;;;;2.33;1.30;;;;;;;;;;5035694;28;20485;-69
2022/07/12 01:37:20;;;;;;;1.70;1.27;;;;;;;;;;5035647;28;20033;-69
2022/07/12 01:39:47;;;;;;;3.40;1.40;;;;;;;;;;5036232;28;20386;-70
2022/07/12 01:42:12;;;;;;;3.70;1.63;;;;;;;;;;5035638;28;20443;-69
2022/07/12 01:44:38;;;;;;;3.33;1.35;;;;;;;;;;5035904;28;20083;-69
2022/07/12 01:47:03;;;;;;;1.50;1.30;;;;;;;;;;5017879;28;20026;-70
2022/07/12 01:49:28;;;;;;;3.08;1.35;;;;;;;;;;5034943;28;20087;-70
2022/07/12 01:51:58;;;;;;;2.50;1.30;;;;;;;;;;5035553;28;20029;-70
2022/07/12 01:54:25;;;;;;;1.50;1.30;;;;;;;;;;5036166;28;20546;-70
2022/07/12 01:56:51;;;;;;;2.03;1.30;;;;;;;;;;5036034;28;20108;-79
2022/07/12 01:59:16;;;;;;;4.00;1.38;;;;;;;;;;5020198;28;20113;-79
2022/07/12 02:01:43;;;;;;;2.72;1.40;;;;;;;;;;5020017;28;20060;-79
2022/07/12 02:04:08;;;;;;;3.13;1.20;;;;;;;;;;5037977;28;20056;-79
2022/07/12 02:06:33;;;;;;;5.17;1.50;;;;;;;;;;5038172;28;20021;-78
2022/07/12 02:08:59;;;;;;;3.50;1.50;;;;;;;;;;5037081;28;20270;-79
2022/07/12 02:11:24;;;;;;;2.15;1.38;;;;;;;;;;5037502;28;20031;-78
2022/07/12 02:13:49;;;;;;;3.45;1.45;;;;;;;;;;5037405;28;20039;-78
2022/07/12 02:16:15;;;;;;;2.55;1.20;;;;;;;;;;5037746;28;20025;-77
2022/07/12 02:18:40;;;;;;;4.28;1.58;;;;;;;;;;5037509;28;20037;-78
2022/07/12 02:21:05;;;;;;;2.20;1.40;;;;;;;;;;5036941;28;20028;-78
2022/07/12 02:23:30;;;;;;;4.13;1.43;;;;;;;;;;5037109;28;20251;-78
2022/07/12 02:25:56;;;;;;;3.00;1.60;;;;;;;;;;5036739;28;20271;-78
2022/07/12 02:28:21;;;;;;;7.25;1.60;;;;;;;;;;5018964;28;20025;-78
2022/07/12 02:30:46;;;;;;;2.20;1.50;;;;;;;;;;5019774;28;20395;-77
2022/07/12 02:33:15;;;;;;;2.50;1.45;;;;;;;;;;5037523;28;20274;-77
2022/07/12 02:35:40;;;;;;;3.53;1.40;;;;;;;;;;5037559;28;20022;-78
2022/07/12 02:38:06;;;;;;;1.30;1.15;;;;;;;;;;5036967;28;20395;-78
2022/07/12 02:43:14;;;;;;;2.95;1.40;;;;;;;;;;5036989;28;20246;-79
2022/07/12 02:45:40;;;;;;;2.45;1.35;;;;;;;;;;5037131;28;20037;-79
2022/07/12 02:48:05;;;;;;;2.87;1.50;;;;;;;;;;5036811;28;20029;-78
2022/07/12 02:50:30;;;;;;;3.30;1.52;;;;;;;;;;5019368;28;20316;-78
2022/07/12 02:52:55;;;;;;;2.87;1.40;;;;;;;;;;5018861;28;20088;-79
2022/07/12 02:55:21;;;;;;;6.40;1.50;;;;;;;;;;5036897;28;20258;-80
2022/07/12 02:57:46;;;;;;;3.53;1.63;;;;;;;;;;5037418;28;20284;-80
2022/07/12 03:00:12;;;;;;;5.67;1.40;;;;;;;;;;5035960;28;20033;-78
2022/07/12 03:02:37;;;;;;;3.50;1.30;;;;;;;;;;5019181;28;20684;-78
2022/07/12 03:05:03;;;;;;;3.17;1.50;;;;;;;;;;5036744;28;20029;-81
2022/07/12 03:07:28;;;;;;;3.67;1.40;;;;;;;;;;5018517;28;20262;-79
2022/07/12 03:09:53;;;;;;;2.17;1.38;;;;;;;;;;5018491;28;20497;-78
2022/07/12 03:12:19;;;;;;;4.07;1.20;;;;;;;;;;5035979;28;20116;-77
2022/07/12 03:14:44;;;;;;;2.65;1.40;;;;;;;;;;5035897;28;20364;-78
2022/07/12 03:17:09;;;;;;;1.20;1.10;;;;;;;;;;5036312;28;20129;-78
2022/07/12 03:19:35;;;;;;;2.03;1.40;;;;;;;;;;5036936;28;20347;-79
2022/07/12 03:22:00;;;;;;;3.83;1.50;;;;;;;;;;5036943;28;20258;-79
2022/07/12 03:24:25;;;;;;;1.80;1.20;;;;;;;;;;5036948;28;20277;-78
2022/07/12 03:26:51;;;;;;;2.35;1.30;;;;;;;;;;5037166;28;20321;-79
2022/07/12 03:29:16;;;;;;;1.73;1.13;;;;;;;;;;5036356;28;20053;-79
2022/07/12 03:31:42;;;;;;;1.95;1.30;;;;;;;;;;5036869;28;20021;-78
2022/07/12 03:34:07;;;;;;;2.00;1.30;;;;;;;;;;5037756;28;20029;-78
2022/07/12 03:36:32;;;;;;;2.60;1.25;;;;;;;;;;5037792;28;20266;-80
2022/07/12 03:38:57;;;;;;;2.00;1.20;;;;;;;;;;5038161;28;20475;-79
2022/07/12 03:41:23;;;;;;;1.97;1.20;;;;;;;;;;5037674;28;20797;-79
2022/07/12 03:43:49;;;;;;;2.33;1.13;;;;;;;;;;5035347;28;20312;-80
2022/07/12 03:46:14;;;;;;;3.45;1.50;;;;;;;;;;5019008;28;20022;-78
2022/07/12 03:48:39;;;;;;;2.13;1.20;;;;;;;;;;5028737;28;20029;-79
2022/07/12 03:51:05;;;;;;;3.43;1.40;;;;;;;;;;5036213;28;20277;-78
2022/07/12 03:53:30;;;;;;;3.70;1.27;;;;;;;;;;5035489;28;20279;-78
2022/07/12 03:55:55;;;;;;;3.27;1.30;;;;;;;;;;5036430;28;20312;-79
2022/07/12 03:58:20;;;;;;;9.57;2.43;;;;;;;;;;5035341;28;20255;-78
2022/07/12 04:00:45;;;;;;;2.33;1.40;;;;;;;;;;5017933;28;20284;-79
2022/07/12 04:03:11;;;;;;;7.30;1.30;;;;;;;;;;5035951;28;20246;-79
2022/07/12 04:05:37;;;;;;;3.55;1.40;;;;;;;;;;5035607;28;20345;-79
2022/07/12 04:08:02;;;;;;;2.80;1.33;;;;;;;;;;5018359;28;20029;-79
2022/07/12 04:10:28;;;;;;;11.73;1.42;;;;;;;;;;5018388;28;20033;-79
2022/07/12 04:12:53;;;;;;;4.25;1.40;;;;;;;;;;5035311;28;20034;-78
2022/07/12 04:15:19;;;;;;;3.80;1.43;;;;;;;;;;5035931;28;20021;-78
2022/07/12 04:17:44;;;;;;;2.45;1.30;;;;;;;;;;5034860;28;20258;-79
2022/07/12 04:20:10;;;;;;;1.27;1.17;;;;;;;;;;5035650;28;20031;-78
2022/07/12 04:22:35;;;;;;;4.25;1.67;;;;;;;;;;5035852;28;20505;-78
2022/07/12 04:25:01;;;;;;;6.88;1.38;;;;;;;;;;5036212;28;20029;-79
2022/07/12 04:27:27;;;;;;;3.78;1.45;;;;;;;;;;5035822;28;20490;-79
2022/07/12 04:29:52;;;;;;;3.85;1.40;;;;;;;;;;5036696;28;20033;-78
2022/07/12 04:32:17;;;;;;;11.40;1.40;;;;;;;;;;5035787;28;20435;-79
2022/07/12 04:34:43;;;;;;;5.97;1.40;;;;;;;;;;5035906;28;20449;-79
2022/07/12 04:37:09;;;;;;;3.28;1.45;;;;;;;;;;5036095;28;20631;-80
2022/07/12 04:39:34;;;;;;;2.50;1.30;;;;;;;;;;5036265;28;20114;-80
2022/07/12 04:41:59;;;;;;;5.82;1.50;;;;;;;;;;5036108;28;20025;-79
2022/07/12 04:44:24;;;;;;;1.75;1.25;;;;;;;;;;5036083;28;20029;-79
2022/07/12 04:46:50;;;;;;;2.80;1.52;;;;;;;;;;5035753;28;20025;-79
2022/07/12 04:49:15;;;;;;;3.45;1.40;;;;;;;;;;5035716;28;20029;-81
2022/07/12 04:51:40;;;;;;;1.83;1.38;;;;;;;;;;5036419;28;20516;-80
2022/07/12 04:54:05;;;;;;;4.50;1.57;;;;;;;;;;5035922;28;20120;-80
2022/07/12 04:56:31;;;;;;;3.37;1.50;;;;;;;;;;5036096;28;20297;-80
2022/07/12 04:58:56;;;;;;;2.63;1.40;;;;;;;;;;5036048;28;20270;-78
2022/07/12 05:01:22;;;;;;;2.95;1.60;;;;;;;;;;5036095;28;20263;-80
2022/07/12 05:03:47;;;;;;;4.53;1.60;;;;;;;;;;5036669;28;20032;-79
2022/07/12 05:06:12;;;;;;;3.77;1.70;;;;;;;;;;5036448;28;20429;-80
2022/07/12 05:08:38;;;;;;;2.27;1.50;;;;;;;;;;5036325;28;20651;-80
2022/07/12 05:11:04;;;;;;;1.77;1.48;;;;;;;;;;5035746;28;20675;-78
2022/07/12 05:13:29;;;;;;;3.28;1.75;;;;;;;;;;5035477;28;20394;-80
2022/07/12 05:15:55;;;;;;;2.25;1.70;;;;;;;;;;5035551;28;20029;-80
2022/07/12 05:18:20;;;;;;;5.60;1.70;;;;;;;;;;5018089;28;20022;-81
2022/07/12 05:20:45;;;;;;;2.03;1.70;;;;;;;;;;5035921;28;20334;-80
2022/07/12 05:23:10;;;;;;;2.42;1.55;;;;;;;;;;5036591;28;20277;-80
2022/07/12 05:25:36;;;;;;;4.43;1.90;;;;;;;;;;5039640;28;20036;-79
2022/07/12 05:28:02;;;;;;;7.75;1.85;;;;;;;;;;5037824;28;20246;-80
2022/07/12 05:30:27;;;;;;;6.43;2.10;;;;;;;;;;5038932;28;20033;-79
2022/07/12 05:32:52;;;;;;;2.97;2.22;;;;;;;;;;5039309;28;20467;-80
2022/07/12 05:35:17;;;;;;;2.90;2.00;;;;;;;;;;5021574;28;20049;-80
2022/07/12 05:37:43;;;;;;;3.40;2.20;;;;;;;;;;5038280;28;20033;-79
2022/07/12 05:40:08;;;;;;;5.78;2.42;;;;;;;;;;5038711;28;20425;-79
2022/07/12 05:42:34;;;;;;;6.05;2.40;;;;;;;;;;5038641;28;20029;-79
2022/07/12 05:44:59;;;;;;;5.53;2.90;;;;;;;;;;5039322;28;20017;-80
2022/07/12 05:47:24;;;;;;;3.97;2.60;;;;;;;;;;5037361;28;20337;-80
2022/07/12 05:49:49;;;;;;;3.17;2.13;;;;;;;;;;5038594;28;20271;-81
2022/07/12 05:54:58;;;;;;;6.57;1.98;;;;;;;;;;5039249;28;20473;-80
2022/07/12 05:57:24;;;;;;;2.47;1.95;;;;;;;;;;5038538;28;20088;-81
2022/07/12 05:59:49;;;;;;;7.43;2.42;;;;;;;;;;5038008;28;20030;-79
2022/07/12 06:02:14;;;;;;;4.57;2.80;;;;;;;;;;5038272;28;20025;-80
2022/07/12 06:04:40;;;;;;;6.73;2.73;;;;;;;;;;5038255;28;20021;-79
2022/07/12 06:07:05;;;;;;;4.93;2.30;;;;;;;;;;5038444;28;20349;-80
2022/07/12 06:09:31;;;;;;;4.25;2.30;;;;;;;;;;5037812;28;20289;-80
2022/07/12 06:11:56;;;;;;;4.97;2.58;;;;;;;;;;5038035;28;20021;-79
2022/07/12 06:14:21;;;;;;;3.00;2.27;;;;;;;;;;5020257;28;20065;-79
2022/07/12 06:16:50;;;;;;;5.07;2.40;;;;;;;;;;5038196;28;20740;-79
2022/07/12 06:19:15;;;;;;;4.85;2.20;;;;;;;;;;5037834;28;20033;-79
2022/07/12 06:21:40;;;;;;;4.32;2.42;;;;;;;;;;5036277;28;20505;-80
2022/07/12 06:24:05;;;;;;;5.73;2.50;;;;;;;;;;5037510;28;20021;-80
2022/07/12 06:26:31;;;;;;;3.58;2.67;;;;;;;;;;5037839;28;20274;-80
2022/07/12 06:28:56;;;;;;;3.97;2.85;;;;;;;;;;5037827;28;20506;-79
2022/07/12 06:31:23;;;;;;;5.90;2.70;;;;;;;;;;5036757;28;20033;-80
2022/07/12 06:33:48;;;;;;;5.10;2.85;;;;;;;;;;5038060;28;20365;-81
2022/07/12 06:36:14;;;;;;;4.82;2.40;;;;;;;;;;5037263;28;20057;-80
2022/07/12 06:38:39;;;;;;;5.90;2.40;;;;;;;;;;5038634;28;20032;-80
2022/07/12 06:41:04;;;;;;;3.63;2.55;;;;;;;;;;5038291;28;20259;-80
2022/07/12 06:43:29;;;;;;;6.18;2.97;;;;;;;;;;5020129;28;20039;-80
2022/07/12 06:45:55;;;;;;;5.13;2.50;;;;;;;;;;5038284;28;20029;-80
2022/07/12 06:48:20;;;;;;;6.53;2.78;;;;;;;;;;5032378;28;20283;-81
2022/07/12 06:50:45;;;;;;;4.80;2.67;;;;;;;;;;5035944;28;20079;-80
2022/07/12 06:53:12;;;;;;;4.20;2.47;;;;;;;;;;5037818;28;20136;-80
2022/07/12 06:55:37;;;;;;;5.00;2.60;;;;;;;;;;5040651;28;20263;-79
2022/07/12 06:58:02;;;;;;;3.00;2.63;;;;;;;;;;5041899;28;20043;-80
2022/07/12 07:00:28;;;;;;;4.63;3.13;;;;;;;;;;5040452;28;20346;-81
2022/07/12 07:02:53;;;;;;;4.18;2.92;;;;;;;;;;5040034;28;20387;-80
2022/07/12 07:05:18;;;;;;;3.45;2.80;;;;;;;;;;5039086;28;20094;-80
2022/07/12 07:07:44;;;;;;;4.10;2.50;;;;;;;;;;5037196;28;20017;-79
2022/07/12 07:10:09;;;;;;;10.73;2.57;;;;;;;;;;5021093;28;20119;-80
2022/07/12 07:12:34;;;;;;;3.87;2.50;;;;;;;;;;5038150;28;20801;-80
2022/07/12 07:14:59;;;;;;;5.63;2.40;;;;;;;;;;5038289;28;20291;-80
2022/07/12 07:17:24;;;;;;;3.43;2.37;;;;;;;;;;5038208;28;20265;-80
2022/07/12 07:19:50;;;;;;;4.43;2.47;;;;;;;;;;5039750;28;20266;-80
2022/07/12 07:22:15;;;;;;;2.90;2.50;;;;;;;;;;5039191;28;20297;-80
2022/07/12 07:24:41;;;;;;;3.30;2.60;;;;;;;;;;5039847;28;20250;-81
2022/07/12 07:27:07;;;;;;;3.25;2.30;;;;;;;;;;5040013;28;20034;-81
2022/07/12 07:32:16;;;;;;;3.22;2.05;;;;;;;;;;5053885;28;20068;-80
2022/07/12 07:34:42;;;;;;;3.38;2.00;;;;;;;;;;5055109;28;20026;-79
2022/07/12 07:37:08;;;;;;;3.67;1.73;;;;;;;;;;5055052;28;20025;-79
2022/07/12 07:39:36;;;;;;;5.68;1.83;;;;;;;;;;5038836;28;20314;-80
2022/07/12 07:42:02;;;;;;;4.32;2.20;;;;;;;;;;5036678;28;20051;-78
2022/07/12 07:44:27;;;;;;;5.22;2.00;;;;;;;;;;5056771;28;20033;-79
2022/07/12 07:46:56;;;;;;;2.78;2.22;;;;;;;;;;5037678;28;20088;-79
2022/07/12 07:49:21;;;;;;;4.30;2.53;;;;;;;;;;5054725;28;20033;-79
2022/07/12 07:51:47;;;;;;;4.75;2.40;;;;;;;;;;5039030;28;20025;-79
2022/07/12 07:54:12;;;;;;;5.13;2.23;;;;;;;;;;5053250;28;20021;-80
2022/07/12 07:56:37;;;;;;;3.30;1.97;;;;;;;;;;5053654;28;20265;-79
2022/07/12 07:59:02;;;;;;;5.97;1.93;;;;;;;;;;5036633;28;20286;-78
2022/07/12 08:01:44;;;;;;;8.03;2.03;;;;;;;;;;5052205;28;20289;-79
2022/07/12 08:04:14;;;;;;;3.67;2.17;;;;;;;;;;5050237;28;20737;-81
2022/07/12 08:06:39;;;;;;;2.65;2.17;;;;;;;;;;5048341;28;20033;-80
2022/07/12 08:09:05;;;;;;;5.17;1.80;;;;;;;;;;5029302;28;20025;-79
2022/07/12 08:11:31;;;;;;;6.65;1.80;;;;;;;;;;5043089;28;20266;-78
2022/07/12 08:13:56;;;;;;;4.35;2.10;;;;;;;;;;5018980;28;20037;-80
2022/07/12 08:16:24;;;;;;;4.30;2.03;;;;;;;;;;5037451;28;20030;-79
2022/07/12 08:18:49;;;;;;;4.32;1.83;;;;;;;;;;5037136;28;20017;-80
2022/07/12 08:21:14;;;;;;;7.77;1.90;;;;;;;;;;5036464;28;20083;-79
2022/07/12 08:23:40;;;;;;;5.40;1.67;;;;;;;;;;5035276;28;20250;-80
2022/07/12 08:26:05;;;;;;;9.00;1.83;;;;;;;;;;5038964;28;20060;-81
2022/07/12 08:28:30;;;;;;;3.37;1.60;;;;;;;;;;5036104;28;20341;-79
2022/07/12 08:30:55;;;;;;;2.60;1.50;;;;;;;;;;5019411;28;20294;-81
2022/07/12 08:33:21;;;;;;;5.25;1.50;;;;;;;;;;5036245;28;20464;-79
2022/07/12 08:35:54;;;;;;;4.38;1.40;;;;;;;;;;5037853;28;20029;-78
2022/07/12 08:38:20;;;;;;;2.78;1.50;;;;;;;;;;5036623;28;20028;-80
2022/07/12 08:40:45;;;;;;;1.75;1.40;;;;;;;;;;5033820;28;20025;-81
2022/07/12 08:43:10;;;;;;;3.00;1.30;;;;;;;;;;5035511;28;20017;-80
2022/07/12 08:45:36;;;;;;;4.60;1.50;;;;;;;;;;5017957;28;20029;-79
2022/07/12 08:48:01;;;;;;;4.90;1.60;;;;;;;;;;5035731;28;20349;-80
2022/07/12 08:50:27;;;;;;;3.40;1.45;;;;;;;;;;5035655;28;20040;-78
2022/07/12 08:52:53;;;;;;;3.03;1.42;;;;;;;;;;5036448;28;20036;-79
2022/07/12 08:55:36;;;;;;;1.23;0.90;;;;;;;;;;5036085;28;20021;-79
2022/07/12 08:58:06;;;;;;;2.53;1.20;;;;;;;;;;5036127;28;20029;-80
2022/07/12 09:00:33;;;;;;;1.80;1.30;;;;;;;;;;5022648;28;20061;-78
2022/07/12 09:03:00;;;;;;;5.30;1.20;;;;;;;;;;5038703;28;20036;-80
2022/07/12 09:05:28;;;;;;;2.60;1.10;;;;;;;;;;5020656;28;20032;-79
2022/07/12 09:08:08;;;;;;;1.70;1.08;;;;;;;;;;5039173;28;20459;-79
2022/07/12 09:10:50;;;;;;;2.25;1.20;;;;;;;;;;5039674;28;20037;-79
2022/07/12 09:13:16;;;;;;;3.63;1.10;;;;;;;;;;5021150;28;20065;-81
2022/07/12 09:15:41;;;;;;;1.33;1.10;;;;;;;;;;5038817;28;20045;-79
2022/07/12 09:18:15;;;;;;;7.40;1.20;;;;;;;;;;5038783;28;20017;-80
2022/07/12 09:20:42;;;;;;;1.40;1.10;;;;;;;;;;5038719;28;20627;-78
2022/07/12 09:23:11;;;;;;;1.70;1.08;;;;;;;;;;5020700;28;20478;-79
2022/07/12 09:25:37;;;;;;;0.77;0.70;;;;;;;;;;5038657;28;20029;-79
2022/07/12 09:28:05;;;;;;;1.17;0.60;;;;;;;;;;5030633;28;20087;-79
2022/07/12 09:30:31;;;;;;;3.28;0.82;;;;;;;;;;5039391;28;20049;-79
2022/07/12 09:36:10;;;;;;;5.75;0.80;;;;;;;;;;5040492;28;20089;-78
2022/07/12 09:38:37;;;;;;;0.70;0.60;;;;;;;;;;5022543;28;20031;-78
2022/07/12 09:41:03;;;;;;;2.85;0.85;;;;;;;;;;5033523;28;20067;-79
2022/07/12 09:43:29;;;;;;;1.58;0.63;;;;;;;;;;5022191;28;20446;-78
2022/07/12 09:45:55;;;;;;;2.03;0.93;;;;;;;;;;5038392;28;20509;-79
2022/07/12 09:48:21;;;;;;;1.73;0.80;;;;;;;;;;5036964;28;20033;-79
2022/07/12 09:50:51;;;;;;;0.82;0.70;;;;;;;;;;5038382;28;20040;-79
2022/07/12 09:53:28;;;;;;;1.77;0.80;;;;;;;;;;5038744;28;20040;-79
2022/07/12 09:55:54;;;;;;;3.72;0.85;;;;;;;;;;5039010;28;20417;-79
2022/07/12 09:58:23;;;;;;;3.10;0.70;;;;;;;;;;5038161;28;20017;-79
2022/07/12 10:00:52;;;;;;;1.60;0.85;;;;;;;;;;5039297;28;20103;-80
2022/07/12 10:03:20;;;;;;;2.53;0.68;;;;;;;;;;5020406;28;20028;-79
2022/07/12 10:05:46;;;;;;;4.25;0.90;;;;;;;;;;5020869;28;20479;-77
2022/07/12 10:08:11;;;;;;;2.10;0.80;;;;;;;;;;5019806;28;20049;-77
2022/07/12 10:10:37;;;;;;;0.85;0.57;;;;;;;;;;5037288;28;20048;-78
2022/07/12 10:13:02;;;;;;;1.65;0.63;;;;;;;;;;5029544;28;20025;-79
2022/07/12 10:15:30;;;;;;;3.55;0.73;;;;;;;;;;5038057;28;20032;-78
2022/07/12 10:18:00;;;;;;;3.28;0.57;;;;;;;;;;5037727;28;20055;-79
2022/07/12 10:20:26;;;;;;;1.88;0.75;;;;;;;;;;5038310;28;20021;-78
2022/07/12 10:23:15;;;;;;;1.25;0.60;;;;;;;;;;5037150;28;20048;-79
2022/07/12 10:25:41;;;;;;;2.50;0.80;;;;;;;;;;5020099;28;20025;-78
2022/07/12 10:28:06;;;;;;;4.38;0.70;;;;;;;;;;5037786;28;20071;-80
2022/07/12 10:30:42;;;;;;;4.33;0.60;;;;;;;;;;5019797;28;20025;-79
2022/07/12 10:33:15;;;;;;;4.70;0.70;;;;;;;;;;5018982;28;20751;-81
2022/07/12 10:36:00;;;;;;;1.45;0.50;;;;;;;;;;5037452;28;20032;-78
2022/07/12 10:38:26;;;;;;;2.30;0.50;;;;;;;;;;5037065;28;20021;-80
2022/07/12 10:40:52;;;;;;;0.77;0.50;;;;;;;;;;5037518;28;20110;-80
2022/07/12 10:44:04;;;;;;;2.75;0.50;;;;;;;;;;5036593;28;20032;-80
2022/07/12 10:46:23;;;;;;;1.05;0.50;;;;;;;;;;5035882;28;20029;-78
2022/07/12 10:48:49;;;;;;;1.25;0.50;;;;;;;;;;5036355;28;20029;-78
2022/07/12 10:51:19;;;;;;;1.05;0.60;;;;;;;;;;5036518;28;20025;-78
2022/07/12 10:53:45;;;;;;;2.83;0.60;;;;;;;;;;5037583;28;20029;-79
2022/07/12 10:56:27;;;;;;;2.95;0.60;;;;;;;;;;5037332;28;20021;-79
2022/07/12 10:58:54;;;;;;;1.38;0.50;;;;;;;;;;5036882;28;20037;-79
2022/07/12 11:01:27;;;;;;;2.17;0.50;;;;;;;;;;5019720;28;20033;-80
2022/07/12 11:04:02;;;;;;;;;;;;;;;;;;5037470;28;20029;-80
2022/07/12 11:06:27;;;;;;;1.65;0.60;;;;;;;;;;5036608;28;20282;-78
2022/07/12 11:09:01;;;;;;;1.05;0.50;;;;;;;;;;5036136;28;20108;-78
2022/07/12 11:11:29;;;;;;;0.90;0.50;;;;;;;;;;5036585;28;20059;-79
2022/07/12 11:13:56;;;;;;;0.98;0.50;;;;;;;;;;5037377;28;20037;-80
2022/07/12 11:16:23;;;;;;;0.93;0.32;;;;;;;;;;5036701;28;20035;-79
2022/07/12 11:18:49;;;;;;;1.50;0.28;;;;;;;;;;5019637;28;20025;-78
2022/07/12 11:21:14;;;;;;;3.70;0.60;;;;;;;;;;5036143;28;20036;-79
2022/07/12 11:23:43;;;;;;;0.47;0.40;;;;;;;;;;5018974;28;20018;-79
2022/07/12 11:26:09;;;;;;;2.67;0.40;;;;;;;;;;5037047;28;20017;-78
2022/07/12 11:28:35;;;;;;;0.35;0.35;;;;;;;;;;5036496;28;20045;-79
2022/07/12 11:31:08;;;;;;;2.60;0.50;;;;;;;;;;5036542;28;20083;-78
2022/07/12 11:33:36;;;;;;;3.17;0.63;;;;;;;;;;5019712;28;20021;-79
2022/07/12 11:36:09;;;;;;;1.20;0.43;;;;;;;;;;5019112;28;20031;-79
2022/07/12 11:38:35;;;;;;;4.22;0.50;;;;;;;;;;5019447;28;20021;-78
2022/07/12 11:41:03;;;;;;;1.50;0.52;;;;;;;;;;5036950;28;20406;-79
2022/07/12 11:43:29;;;;;;;0.57;0.50;;;;;;;;;;5035805;28;20033;-78
2022/07/12 11:45:55;;;;;;;1.52;0.32;;;;;;;;;;5036091;28;20021;-77
2022/07/12 11:48:21;;;;;;;0.98;0.43;;;;;;;;;;5036924;28;20022;-78
2022/07/12 11:50:47;;;;;;;0.85;0.50;;;;;;;;;;5036660;28;20101;-78
2022/07/12 11:53:19;;;;;;;1.67;0.43;;;;;;;;;;5036706;28;20037;-79
2022/07/12 11:55:46;;;;;;;1.38;0.40;;;;;;;;;;5036046;28;20033;-79
2022/07/12 11:58:13;;;;;;;0.95;0.38;;;;;;;;;;5036149;28;20030;-80
2022/07/12 12:00:38;;;;;;;2.58;0.60;;;;;;;;;;5036253;28;20025;-79
2022/07/12 12:03:04;;;;;;;2.60;0.50;;;;;;;;;;5036282;28;20104;-79
2022/07/12 12:05:30;;;;;;;1.30;0.63;;;;;;;;;;5017787;28;20060;-79
2022/07/12 12:07:55;;;;;;;1.25;0.50;;;;;;;;;;5035952;28;20048;-81
2022/07/12 12:10:21;;;;;;;2.05;0.60;;;;;;;;;;5034837;28;20021;-79
2022/07/12 12:12:48;;;;;;;0.40;0.40;;;;;;;;;;5035661;28;20056;-82
2022/07/12 12:15:16;;;;;;;2.65;1.02;;;;;;;;;;5035219;28;20482;-79
2022/07/12 12:17:58;;;;;;;1.27;0.40;;;;;;;;;;5017673;28;20068;-78
2022/07/12 12:20:25;;;;;;;0.55;0.50;;;;;;;;;;5035806;28;20109;-79
2022/07/12 12:22:55;;;;;;;0.75;0.40;;;;;;;;;;5035441;28;20025;-78
2022/07/12 12:25:22;;;;;;;2.75;0.40;;;;;;;;;;5034832;28;20040;-79
2022/07/12 12:27:58;;;;;;;4.85;0.60;;;;;;;;;;5035734;28;20032;-80
2022/07/12 12:30:24;;;;;;;1.35;0.63;;;;;;;;;;5035860;28;20022;-79
2022/07/12 12:32:52;;;;;;;1.58;0.50;;;;;;;;;;5037896;28;20021;-79
2022/07/12 12:35:23;;;;;;;2.40;0.50;;;;;;;;;;5039401;28;20052;-79
2022/07/12 12:37:52;;;;;;;1.58;0.43;;;;;;;;;;5039875;28;20032;-80
2022/07/12 12:40:19;;;;;;;0.70;0.30;;;;;;;;;;5039573;28;20029;-79
2022/07/12 12:42:45;;;;;;;1.10;0.50;;;;;;;;;;5039386;28;20386;-79
2022/07/12 12:45:22;;;;;;;0.77;0.45;;;;;;;;;;5022193;28;20031;-80
2022/07/12 12:48:05;;;;;;;1.70;0.40;;;;;;;;;;5037713;28;20038;-79
2022/07/12 12:51:05;;;;;;;1.75;0.50;;;;;;;;;;5034609;28;20057;-79
2022/07/12 12:53:31;;;;;;;2.03;0.45;;;;;;;;;;5011806;28;20441;-79
2022/07/12 12:55:56;;;;;;;2.63;0.70;;;;;;;;;;5039096;28;20029;-79
2022/07/12 12:58:24;;;;;;;2.72;0.77;;;;;;;;;;5021427;28;20025;-79
2022/07/12 13:00:51;;;;;;;2.10;0.70;;;;;;;;;;5039661;28;20116;-80
2022/07/12 13:03:19;;;;;;;0.40;0.40;;;;;;;;;;5040088;28;20148;-80
2022/07/12 13:05:45;;;;;;;3.25;0.65;;;;;;;;;;5039696;28;20092;-79
2022/07/12 13:08:12;;;;;;;1.63;0.60;;;;;;;;;;5039644;28;20474;-79
2022/07/12 13:10:38;;;;;;;2.97;0.52;;;;;;;;;;5038654;28;20060;-81
2022/07/12 13:13:04;;;;;;;3.30;0.52;;;;;;;;;;5039272;28;20033;-80
2022/07/12 13:15:30;;;;;;;0.65;0.52;;;;;;;;;;5039044;28;20021;-81
2022/07/12 13:17:56;;;;;;;1.65;0.50;;;;;;;;;;5039316;28;20036;-80
2022/07/12 13:20:23;;;;;;;0.70;0.50;;;;;;;;;;5038937;28;20116;-79
2022/07/12 13:22:48;;;;;;;1.48;0.63;;;;;;;;;;5039209;28;20036;-81
2022/07/12 13:25:14;;;;;;;0.63;0.50;;;;;;;;;;5038267;28;20014;-80
2022/07/12 13:27:42;;;;;;;4.05;0.60;;;;;;;;;;5039052;28;20026;-81
2022/07/12 13:30:09;;;;;;;1.65;0.57;;;;;;;;;;5038660;28;20021;-79
2022/07/12 13:32:35;;;;;;;0.73;0.50;;;;;;;;;;5038620;28;20036;-78
2022/07/12 13:35:02;;;;;;;0.70;0.30;;;;;;;;;;5038880;28;20017;-79
2022/07/12 13:37:27;;;;;;;0.73;0.60;;;;;;;;;;5038615;28;20029;-78
2022/07/12 13:40:14;;;;;;;1.95;0.70;;;;;;;;;;5038455;28;20025;-79
2022/07/12 13:42:48;;;;;;;2.53;0.70;;;;;;;;;;5037930;28;20510;-79
2022/07/12 13:45:19;;;;;;;0.75;0.55;;;;;;;;;;5037626;28;20546;-79
2022/07/12 13:47:46;;;;;;;0.60;0.52;;;;;;;;;;5038261;28;20421;-78
2022/07/12 13:50:13;;;;;;;2.53;0.75;;;;;;;;;;5020340;28;20025;-78
2022/07/12 13:52:40;;;;;;;1.90;0.63;;;;;;;;;;5038117;28;20029;-80
2022/07/12 13:55:07;;;;;;;1.00;0.63;;;;;;;;;;5038513;28;20049;-79
2022/07/12 13:57:34;;;;;;;1.75;0.70;;;;;;;;;;5038109;28;20041;-78
2022/07/12 13:59:59;;;;;;;2.78;0.70;;;;;;;;;;5038068;28;20037;-81
2022/07/12 14:02:25;;;;;;;1.70;0.60;;;;;;;;;;5038299;28;20104;-80
2022/07/12 14:04:51;;;;;;;1.75;0.65;;;;;;;;;;5020213;28;20021;-78
2022/07/12 14:07:16;;;;;;;1.15;0.70;;;;;;;;;;5020075;28;20036;-80
2022/07/12 14:09:41;;;;;;;2.40;0.60;;;;;;;;;;5038273;28;20474;-79
2022/07/12 14:12:09;;;;;;;5.15;0.80;;;;;;;;;;5038518;28;20053;-79
2022/07/12 14:17:19;;;;;;;0.68;0.60;;;;;;;;;;5037995;28;20382;-79
2022/07/12 14:19:44;;;;;;;1.30;0.75;;;;;;;;;;5037671;28;20485;-79
2022/07/12 14:22:10;;;;;;;1.27;0.57;;;;;;;;;;5037753;28;20025;-80
2022/07/12 14:24:35;;;;;;;3.27;1.00;;;;;;;;;;5020594;28;20766;-80
2022/07/12 14:27:01;;;;;;;1.47;0.53;;;;;;;;;;5038120;28;20807;-80
2022/07/12 14:29:26;;;;;;;3.03;0.63;;;;;;;;;;5036283;28;20623;-80
2022/07/12 14:31:52;;;;;;;0.90;0.55;;;;;;;;;;5037796;28;20040;-79
2022/07/12 14:34:18;;;;;;;1.13;0.60;;;;;;;;;;5035933;28;20249;-79
2022/07/12 14:36:44;;;;;;;0.63;0.60;;;;;;;;;;5019439;28;20402;-80
2022/07/12 14:39:09;;;;;;;0.60;0.60;;;;;;;;;;5038070;28;20041;-80
2022/07/12 14:41:34;;;;;;;0.73;0.57;;;;;;;;;;5020100;28;20029;-79
2022/07/12 14:44:00;;;;;;;1.98;0.47;;;;;;;;;;5037827;28;20243;-78
2022/07/12 14:46:25;;;;;;;0.70;0.40;;;;;;;;;;5037332;28;20025;-79
2022/07/12 14:48:50;;;;;;;1.40;0.60;;;;;;;;;;5037026;28;20131;-79
2022/07/12 14:51:15;;;;;;;0.60;0.50;;;;;;;;;;5037924;28;20302;-79
2022/07/12 14:53:41;;;;;;;2.42;0.90;;;;;;;;;;5037061;28;20286;-79
2022/07/12 14:56:06;;;;;;;1.45;0.90;;;;;;;;;;5018695;28;20375;-80